Time;durP1;ratioP1;P1;durP2;ratioP2;P2;SDS_P1;SDS_P2;PMS_P1;PMS_P2;Temp;Humidity;BMP_temperature;BMP_pressure;BME280_temperature;BME280_humidity;BME280_pressure;Samples;Min_cycle;Max_cycle;Signal;HPM_P1;HPM_P2
2022/07/23 00:01:29;;;;;;;6.32;2.92;;;15.90;99.90;;;;;;5031333;28;20026;-47
2022/07/23 00:03:56;;;;;;;6.50;2.90;;;15.90;99.90;;;;;;5031422;28;20025;-45
2022/07/23 00:06:23;;;;;;;7.15;3.30;;;15.80;99.90;;;;;;5031203;28;20025;-50
2022/07/23 00:08:49;;;;;;;5.15;2.83;;;15.80;99.90;;;;;;5031255;28;20022;-52
2022/07/23 00:11:15;;;;;;;6.05;2.63;;;15.80;99.90;;;;;;5030591;28;20388;-43
2022/07/23 00:13:40;;;;;;;6.68;2.90;;;15.70;99.90;;;;;;5030494;28;20039;-45
2022/07/23 00:16:06;;;;;;;4.07;2.67;;;15.70;99.90;;;;;;5030813;28;20053;-47
2022/07/23 00:18:32;;;;;;;4.55;2.67;;;15.70;99.90;;;;;;5031139;28;20033;-41
2022/07/23 00:20:58;;;;;;;5.28;2.88;;;15.60;99.90;;;;;;5031018;28;20030;-45
2022/07/23 00:23:24;;;;;;;5.15;3.00;;;15.60;99.90;;;;;;5030867;28;20024;-50
2022/07/23 00:25:51;;;;;;;4.88;2.83;;;15.60;99.90;;;;;;5030883;28;20029;-51
2022/07/23 00:28:18;;;;;;;5.65;2.72;;;15.50;99.90;;;;;;5030907;28;20029;-49
2022/07/23 00:30:43;;;;;;;4.88;2.63;;;15.50;99.90;;;;;;5030732;28;20503;-52
2022/07/23 00:33:09;;;;;;;5.80;2.85;;;15.40;99.90;;;;;;5030818;28;20033;-49
2022/07/23 00:35:40;;;;;;;4.53;2.45;;;15.40;99.90;;;;;;5030771;28;20046;-42
2022/07/23 00:38:06;;;;;;;7.05;2.78;;;15.40;99.90;;;;;;5030845;28;20040;-43
2022/07/23 00:40:33;;;;;;;4.90;2.60;;;15.40;99.90;;;;;;5030475;28;20361;-55
2022/07/23 00:42:59;;;;;;;5.45;2.40;;;15.30;99.90;;;;;;5031062;28;20079;-50
2022/07/23 00:45:25;;;;;;;4.28;2.72;;;15.30;99.90;;;;;;5030972;28;20056;-44
2022/07/23 00:47:51;;;;;;;4.18;2.58;;;15.20;99.90;;;;;;5030972;28;20048;-45
2022/07/23 00:50:17;;;;;;;6.13;2.75;;;15.10;99.90;;;;;;5030930;28;20037;-51
2022/07/23 00:52:44;;;;;;;5.60;2.75;;;15.10;99.90;;;;;;5030800;28;20120;-50
2022/07/23 00:55:11;;;;;;;4.80;2.47;;;15.10;99.90;;;;;;5030868;28;20048;-46
2022/07/23 00:57:39;;;;;;;5.45;2.80;;;15.10;99.90;;;;;;5030961;28;20025;-44
2022/07/23 01:00:07;;;;;;;4.20;2.45;;;15.10;99.90;;;;;;5030775;28;20546;-46
2022/07/23 01:02:34;;;;;;;5.75;2.40;;;15.10;99.90;;;;;;5030889;28;20030;-45
2022/07/23 01:05:00;;;;;;;4.55;2.42;;;15.20;99.90;;;;;;5030671;28;20033;-47
2022/07/23 01:07:26;;;;;;;4.00;2.25;;;15.30;99.90;;;;;;5030675;28;20055;-50
2022/07/23 01:09:52;;;;;;;6.03;2.90;;;15.40;99.90;;;;;;5030197;28;20017;-44
2022/07/23 01:12:18;;;;;;;4.53;2.60;;;15.50;99.90;;;;;;5030600;28;20057;-50
2022/07/23 01:14:44;;;;;;;6.60;2.40;;;15.60;99.90;;;;;;5030067;28;20030;-43
2022/07/23 01:17:09;;;;;;;5.15;2.45;;;15.70;99.90;;;;;;5030604;28;20045;-44
2022/07/23 01:19:35;;;;;;;4.13;2.60;;;15.80;99.90;;;;;;5030408;28;20036;-46
2022/07/23 01:22:03;;;;;;;4.00;2.30;;;15.80;99.90;;;;;;5030570;28;20033;-53
2022/07/23 01:24:29;;;;;;;3.72;2.20;;;15.90;99.90;;;;;;5030624;28;20088;-44
2022/07/23 01:26:54;;;;;;;4.00;2.20;;;15.90;99.90;;;;;;5030172;28;20381;-46
2022/07/23 01:29:21;;;;;;;4.72;2.50;;;15.90;99.90;;;;;;5030568;28;20435;-49
2022/07/23 01:31:46;;;;;;;6.43;2.60;;;16.00;99.90;;;;;;5030081;28;20104;-48
2022/07/23 01:34:13;;;;;;;6.03;2.45;;;16.00;99.90;;;;;;5030325;28;20121;-45
2022/07/23 01:36:39;;;;;;;3.50;2.15;;;16.10;99.90;;;;;;5029946;28;20111;-46
2022/07/23 01:39:07;;;;;;;4.85;2.47;;;16.10;99.90;;;;;;5030416;28;20021;-49
2022/07/23 01:41:33;;;;;;;5.43;2.50;;;16.10;99.90;;;;;;5030155;28;20427;-42
2022/07/23 01:43:58;;;;;;;4.30;2.58;;;16.20;99.90;;;;;;5032742;28;20079;-48
2022/07/23 01:46:24;;;;;;;4.28;2.38;;;16.20;99.90;;;;;;5033268;28;20415;-46
2022/07/23 01:48:50;;;;;;;4.70;2.70;;;16.20;99.90;;;;;;5033568;28;20030;-48
2022/07/23 01:51:16;;;;;;;5.20;2.65;;;16.20;99.90;;;;;;5033356;28;20030;-50
2022/07/23 01:53:41;;;;;;;4.25;2.67;;;16.20;99.90;;;;;;5033751;28;20021;-43
2022/07/23 01:56:07;;;;;;;6.13;3.00;;;16.20;99.90;;;;;;5031725;28;20041;-51
2022/07/23 01:58:33;;;;;;;5.20;2.60;;;16.20;99.90;;;;;;5034213;28;20083;-43
2022/07/23 02:00:59;;;;;;;6.38;2.92;;;16.20;99.90;;;;;;5039204;28;20029;-50
2022/07/23 02:03:25;;;;;;;5.28;2.33;;;16.20;99.90;;;;;;5051496;28;20036;-46
2022/07/23 02:05:51;;;;;;;3.78;2.65;;;16.20;99.90;;;;;;5041424;28;20036;-50
2022/07/23 02:08:17;;;;;;;5.22;2.70;;;16.30;99.90;;;;;;5053384;28;20021;-45
2022/07/23 02:10:44;;;;;;;6.25;2.50;;;16.30;99.90;;;;;;5049491;28;20395;-49
2022/07/23 02:13:10;;;;;;;5.15;2.38;;;16.30;99.90;;;;;;5041404;28;20083;-47
2022/07/23 02:15:36;;;;;;;5.60;2.67;;;16.30;99.90;;;;;;5045490;28;20037;-42
2022/07/23 02:18:02;;;;;;;5.68;2.92;;;16.20;99.90;;;;;;5053299;28;20025;-43
2022/07/23 02:20:27;;;;;;;5.82;2.88;;;16.20;99.90;;;;;;5047037;28;20096;-49
2022/07/23 02:22:53;;;;;;;6.00;2.90;;;16.30;99.90;;;;;;5038395;28;20488;-46
2022/07/23 02:25:19;;;;;;;4.80;2.35;;;16.30;99.90;;;;;;5040386;28;20030;-50
2022/07/23 02:27:44;;;;;;;4.57;2.83;;;16.30;99.90;;;;;;5025207;28;20458;-46
2022/07/23 02:30:10;;;;;;;5.00;2.70;;;16.30;99.90;;;;;;5041289;28;20040;-48
2022/07/23 02:32:36;;;;;;;4.18;2.50;;;16.20;99.90;;;;;;5043641;28;20025;-44
2022/07/23 02:35:03;;;;;;;5.78;2.80;;;16.20;99.90;;;;;;5048065;28;20041;-49
2022/07/23 02:37:29;;;;;;;5.93;2.78;;;16.20;99.90;;;;;;5047447;28;20033;-44
2022/07/23 02:39:55;;;;;;;4.30;2.40;;;16.10;99.90;;;;;;5049401;28;20587;-49
2022/07/23 02:42:21;;;;;;;3.55;2.40;;;16.10;99.90;;;;;;5046611;28;20025;-43
2022/07/23 02:44:47;;;;;;;4.85;2.80;;;16.00;99.90;;;;;;5049814;28;20036;-43
2022/07/23 02:47:12;;;;;;;6.22;3.10;;;16.00;99.90;;;;;;5044304;28;20029;-53
2022/07/23 02:49:38;;;;;;;5.05;2.75;;;16.00;99.90;;;;;;5050825;28;20395;-52
2022/07/23 02:52:04;;;;;;;3.85;2.40;;;15.90;99.90;;;;;;5042335;28;20028;-44
2022/07/23 02:54:30;;;;;;;4.78;2.63;;;15.90;99.90;;;;;;5052430;28;20138;-47
2022/07/23 02:56:55;;;;;;;4.50;2.55;;;15.80;99.90;;;;;;5037040;28;20041;-49
2022/07/23 02:59:21;;;;;;;5.35;2.67;;;15.80;99.90;;;;;;5039683;28;20380;-50
2022/07/23 03:01:47;;;;;;;4.97;2.50;;;15.70;99.90;;;;;;5052040;28;20055;-48
2022/07/23 03:04:12;;;;;;;4.63;2.80;;;15.70;99.90;;;;;;5041539;28;20073;-51
2022/07/23 03:06:38;;;;;;;3.50;2.40;;;15.70;99.90;;;;;;5048897;28;20044;-45
2022/07/23 03:09:05;;;;;;;4.90;2.83;;;15.70;99.90;;;;;;5052314;28;20029;-50
2022/07/23 03:11:31;;;;;;;7.05;3.05;;;15.70;99.90;;;;;;5052038;28;20099;-49
2022/07/23 03:13:57;;;;;;;3.60;2.58;;;15.70;99.90;;;;;;5052152;28;20103;-52
2022/07/23 03:16:22;;;;;;;5.70;2.80;;;15.70;99.90;;;;;;5051318;28;20057;-49
2022/07/23 03:18:48;;;;;;;5.43;2.50;;;15.80;99.90;;;;;;5033635;28;20017;-47
2022/07/23 03:21:14;;;;;;;4.45;2.72;;;15.80;99.90;;;;;;5039860;28;20029;-46
2022/07/23 03:23:39;;;;;;;5.25;2.65;;;15.80;99.90;;;;;;5031888;28;20021;-46
2022/07/23 03:26:05;;;;;;;4.18;2.55;;;15.80;99.90;;;;;;5031714;28;20029;-46
2022/07/23 03:28:31;;;;;;;5.93;2.80;;;15.80;99.90;;;;;;5031826;28;20061;-47
2022/07/23 03:30:57;;;;;;;6.55;2.45;;;15.80;99.90;;;;;;5030402;28;20326;-48
2022/07/23 03:33:23;;;;;;;6.55;2.83;;;15.80;99.90;;;;;;5031911;28;20052;-55
2022/07/23 03:35:48;;;;;;;4.22;2.40;;;15.80;99.90;;;;;;5031247;28;20510;-43
2022/07/23 03:38:15;;;;;;;6.82;2.72;;;15.80;99.90;;;;;;5031831;28;20022;-48
2022/07/23 03:40:41;;;;;;;5.45;2.78;;;15.80;99.90;;;;;;5031561;28;20097;-43
2022/07/23 03:43:06;;;;;;;4.75;2.78;;;15.70;99.90;;;;;;5031522;28;20037;-43
2022/07/23 03:45:32;;;;;;;6.93;2.83;;;15.70;99.90;;;;;;5031533;28;20036;-42
2022/07/23 03:47:58;;;;;;;3.53;2.67;;;15.70;99.90;;;;;;5031537;28;20022;-55
2022/07/23 03:50:24;;;;;;;4.60;2.60;;;15.70;99.90;;;;;;5031614;28;20029;-50
2022/07/23 03:52:50;;;;;;;5.60;3.10;;;15.70;99.90;;;;;;5031424;28;20224;-46
2022/07/23 03:55:16;;;;;;;5.72;2.92;;;15.60;99.90;;;;;;5031043;28;20026;-46
2022/07/23 03:57:42;;;;;;;4.90;2.90;;;15.60;99.90;;;;;;5030750;28;20192;-45
2022/07/23 04:00:09;;;;;;;5.13;2.75;;;15.60;99.90;;;;;;5031074;28;20099;-44
2022/07/23 04:02:36;;;;;;;5.93;2.80;;;15.60;99.90;;;;;;5030915;28;20108;-44
2022/07/23 04:05:03;;;;;;;5.55;2.95;;;15.60;99.90;;;;;;5034672;28;20021;-44
2022/07/23 04:07:28;;;;;;;5.55;2.80;;;15.60;99.90;;;;;;5050819;28;20108;-46
2022/07/23 04:09:54;;;;;;;4.65;2.90;;;15.60;99.90;;;;;;5051113;28;20116;-51
2022/07/23 04:12:20;;;;;;;4.90;2.83;;;15.60;99.90;;;;;;5051112;28;20383;-46
2022/07/23 04:14:45;;;;;;;6.50;2.90;;;15.60;99.90;;;;;;5051038;28;20085;-44
2022/07/23 04:17:12;;;;;;;5.10;2.75;;;15.60;99.90;;;;;;5050824;28;20032;-49
2022/07/23 04:19:39;;;;;;;4.63;2.75;;;15.60;99.90;;;;;;5050989;28;20361;-51
2022/07/23 04:22:09;;;;;;;4.53;2.47;;;15.50;99.90;;;;;;5050958;28;20096;-52
2022/07/23 04:24:34;;;;;;;;;;;15.50;99.90;;;;;;5049372;28;20136;-44
2022/07/23 04:27:00;;;;;;;4.72;2.78;;;15.40;99.90;;;;;;5047095;28;20363;-45
2022/07/23 04:29:26;;;;;;;4.88;2.50;;;15.40;99.90;;;;;;5047268;28;20121;-44
2022/07/23 04:31:52;;;;;;;6.28;2.85;;;15.30;99.90;;;;;;5038117;28;20088;-44
2022/07/23 04:34:18;;;;;;;4.35;2.75;;;15.30;99.90;;;;;;5038215;28;20036;-46
2022/07/23 04:36:44;;;;;;;4.80;2.80;;;15.30;99.90;;;;;;5050453;28;20057;-43
2022/07/23 04:39:09;;;;;;;4.03;2.40;;;15.30;99.90;;;;;;5050728;28;20021;-47
2022/07/23 04:41:35;;;;;;;4.55;2.50;;;15.30;99.90;;;;;;5050750;28;20025;-43
2022/07/23 04:44:02;;;;;;;3.58;2.28;;;15.30;99.90;;;;;;5050492;28;20095;-50
2022/07/23 04:46:28;;;;;;;4.05;2.38;;;15.30;99.90;;;;;;5050621;28;20387;-45
2022/07/23 04:48:54;;;;;;;6.40;3.15;;;15.30;99.90;;;;;;5050568;28;20021;-48
2022/07/23 04:51:20;;;;;;;5.00;2.78;;;15.30;99.90;;;;;;5050615;28;20031;-57
2022/07/23 04:53:45;;;;;;;4.47;2.78;;;15.30;99.90;;;;;;5050778;28;20116;-53
2022/07/23 04:56:11;;;;;;;7.55;3.05;;;15.30;99.90;;;;;;5040013;28;20059;-46
2022/07/23 04:58:37;;;;;;;8.40;2.90;;;15.30;99.90;;;;;;5049867;28;20078;-45
2022/07/23 05:01:03;;;;;;;5.53;3.00;;;15.30;99.90;;;;;;5033985;28;20037;-48
2022/07/23 05:03:29;;;;;;;6.13;2.35;;;15.30;99.90;;;;;;5030281;28;20018;-46
2022/07/23 05:05:55;;;;;;;5.32;2.97;;;15.30;99.90;;;;;;5041372;28;20033;-47
2022/07/23 05:08:20;;;;;;;7.10;2.95;;;15.30;99.90;;;;;;5050335;28;20387;-47
2022/07/23 05:10:46;;;;;;;4.32;2.58;;;15.40;99.90;;;;;;5050572;28;20029;-46
2022/07/23 05:13:14;;;;;;;5.25;2.80;;;15.50;99.90;;;;;;5050400;28;20028;-53
2022/07/23 05:15:40;;;;;;;4.18;2.63;;;15.50;99.90;;;;;;5050310;28;20116;-50
2022/07/23 05:18:05;;;;;;;5.22;3.28;;;15.50;99.90;;;;;;5051599;28;20111;-52
2022/07/23 05:20:31;;;;;;;7.38;2.60;;;15.60;99.90;;;;;;5054219;28;20032;-58
2022/07/23 05:22:57;;;;;;;5.93;2.65;;;15.70;99.90;;;;;;5053059;28;20549;-45
2022/07/23 05:25:23;;;;;;;6.43;3.67;;;15.80;99.90;;;;;;5049205;28;20539;-58
2022/07/23 05:27:48;;;;;;;4.80;2.97;;;15.80;99.90;;;;;;5040905;28;20052;-42
2022/07/23 05:30:14;;;;;;;6.28;3.10;;;16.00;99.90;;;;;;5036023;28;20025;-52
2022/07/23 05:32:39;;;;;;;5.82;3.28;;;16.00;99.90;;;;;;5054210;28;20043;-43
2022/07/23 05:35:07;;;;;;;4.05;2.88;;;16.10;99.90;;;;;;5053941;28;20033;-51
2022/07/23 05:37:33;;;;;;;4.35;2.90;;;16.30;99.90;;;;;;5053790;28;20052;-44
2022/07/23 05:40:07;;;;;;;6.18;3.15;;;16.40;99.90;;;;;;5053952;28;20029;-47
2022/07/23 05:42:36;;;;;;;4.43;3.13;;;16.50;99.90;;;;;;5053141;28;20491;-45
2022/07/23 05:45:03;;;;;;;5.57;2.88;;;16.70;99.90;;;;;;5036874;28;20070;-48
2022/07/23 05:47:29;;;;;;;6.05;3.15;;;16.90;99.90;;;;;;5044892;28;20038;-45
2022/07/23 05:49:54;;;;;;;5.47;3.00;;;17.00;99.90;;;;;;5046497;28;20035;-47
2022/07/23 05:52:20;;;;;;;3.88;2.67;;;17.30;99.90;;;;;;5052006;28;20422;-43
2022/07/23 05:54:46;;;;;;;3.13;2.47;;;17.70;99.90;;;;;;5049007;28;20025;-48
2022/07/23 05:57:11;;;;;;;5.25;2.67;;;18.00;99.90;;;;;;5050431;28;20449;-48
2022/07/23 05:59:37;;;;;;;5.50;2.20;;;18.50;98.70;;;;;;5048768;28;20021;-49
2022/07/23 06:02:03;;;;;;;6.95;2.80;;;19.10;97.70;;;;;;5028373;28;20042;-47
2022/07/23 06:04:28;;;;;;;5.38;2.50;;;19.80;95.80;;;;;;5026680;28;20018;-47
2022/07/23 06:06:54;;;;;;;3.65;2.03;;;20.70;94.40;;;;;;5038807;28;20064;-51
2022/07/23 06:09:20;;;;;;;4.60;1.90;;;21.50;92.50;;;;;;5050405;28;20025;-45
2022/07/23 06:11:45;;;;;;;3.75;2.10;;;22.40;91.30;;;;;;5030808;28;20029;-47
2022/07/23 06:14:11;;;;;;;3.38;2.00;;;23.00;90.20;;;;;;5032731;28;20464;-46
2022/07/23 06:16:36;;;;;;;4.05;1.83;;;23.50;88.30;;;;;;5033075;28;20046;-46
2022/07/23 06:19:02;;;;;;;3.53;2.00;;;24.00;87.80;;;;;;5033359;28;20025;-43
2022/07/23 06:21:28;;;;;;;6.07;2.78;;;24.60;84.10;;;;;;5028130;28;20439;-45
2022/07/23 06:23:53;;;;;;;4.28;2.25;;;24.80;83.00;;;;;;5027293;28;20028;-48
2022/07/23 06:26:19;;;;;;;4.20;2.25;;;25.30;82.80;;;;;;5036257;28;20060;-57
2022/07/23 06:28:45;;;;;;;6.22;2.28;;;25.70;80.60;;;;;;5041932;28;20033;-48
2022/07/23 06:31:10;;;;;;;5.55;2.38;;;26.00;80.50;;;;;;5025581;28;20041;-45
2022/07/23 06:33:36;;;;;;;6.68;2.42;;;26.30;78.20;;;;;;5032376;28;20041;-44
2022/07/23 06:36:02;;;;;;;3.92;2.15;;;26.60;77.90;;;;;;5034382;28;20045;-42
2022/07/23 06:38:27;;;;;;;4.53;1.80;;;26.90;77.30;;;;;;5036217;28;20044;-44
2022/07/23 06:40:53;;;;;;;4.00;1.80;;;27.30;76.30;;;;;;5036420;28;20117;-49
2022/07/23 06:43:18;;;;;;;5.53;1.70;;;27.60;74.50;;;;;;5033499;28;20108;-48
2022/07/23 06:45:44;;;;;;;6.03;1.85;;;27.90;71.90;;;;;;5041018;28;20033;-52
2022/07/23 06:48:10;;;;;;;4.82;1.88;;;28.10;71.30;;;;;;5037605;28;20108;-47
2022/07/23 06:50:35;;;;;;;3.10;1.83;;;28.10;70.60;;;;;;5038627;28;20029;-45
2022/07/23 06:53:01;;;;;;;4.78;1.80;;;28.00;70.50;;;;;;5034795;28;20022;-47
2022/07/23 06:55:27;;;;;;;4.05;1.77;;;28.00;70.50;;;;;;5037154;28;20075;-47
2022/07/23 06:57:52;;;;;;;4.20;1.48;;;28.00;70.30;;;;;;5030506;28;20463;-46
2022/07/23 07:00:18;;;;;;;5.22;2.17;;;28.20;71.10;;;;;;5030360;28;20026;-52
2022/07/23 07:02:44;;;;;;;4.68;1.85;;;28.50;68.70;;;;;;5043367;28;20032;-43
2022/07/23 07:05:10;;;;;;;5.68;2.00;;;28.60;70.20;;;;;;5035515;28;20024;-44
2022/07/23 07:07:35;;;;;;;3.88;1.50;;;29.00;69.80;;;;;;5052304;28;20111;-46
2022/07/23 07:10:03;;;;;;;4.65;1.63;;;29.20;68.30;;;;;;5052061;28;20030;-47
2022/07/23 07:12:29;;;;;;;4.97;2.00;;;29.40;65.90;;;;;;5046802;28;20148;-46
2022/07/23 07:14:54;;;;;;;4.72;1.95;;;29.60;65.90;;;;;;5037839;28;20377;-51
2022/07/23 07:17:20;;;;;;;5.75;2.25;;;29.60;65.40;;;;;;5031617;28;20032;-46
2022/07/23 07:19:46;;;;;;;5.07;2.08;;;30.00;63.30;;;;;;5038558;28;20025;-44
2022/07/23 07:22:11;;;;;;;4.68;1.90;;;30.40;63.80;;;;;;5030251;28;20017;-53
2022/07/23 07:24:37;;;;;;;7.78;2.20;;;30.60;61.70;;;;;;5031419;28;20039;-50
2022/07/23 07:27:03;;;;;;;3.30;1.98;;;30.60;61.70;;;;;;5030163;28;20033;-49
2022/07/23 07:29:29;;;;;;;5.03;2.10;;;30.70;62.20;;;;;;5028505;28;20017;-46
2022/07/23 07:31:55;;;;;;;5.15;1.95;;;31.20;60.90;;;;;;5029741;28;20416;-48
2022/07/23 07:34:20;;;;;;;4.10;1.88;;;31.20;60.80;;;;;;5029071;28;20032;-53
2022/07/23 07:36:46;;;;;;;5.28;1.80;;;31.70;57.40;;;;;;5027508;28;20075;-50
2022/07/23 07:39:12;;;;;;;6.53;2.10;;;31.90;56.40;;;;;;5027444;28;20391;-52
2022/07/23 07:41:37;;;;;;;3.92;2.15;;;32.20;55.70;;;;;;5027362;28;20058;-48
2022/07/23 07:44:03;;;;;;;3.53;2.15;;;32.30;54.50;;;;;;5029533;28;20455;-51
2022/07/23 07:46:30;;;;;;;9.43;2.03;;;32.50;53.10;;;;;;5029931;28;20036;-44
2022/07/23 07:48:56;;;;;;;5.15;1.95;;;32.50;51.90;;;;;;5029392;28;20083;-48
2022/07/23 07:51:21;;;;;;;5.28;1.67;;;32.60;51.00;;;;;;5031463;28;20025;-47
2022/07/23 07:53:47;;;;;;;5.40;2.08;;;32.80;51.40;;;;;;5031503;28;20025;-51
2022/07/23 07:56:13;;;;;;;3.95;1.80;;;33.20;49.70;;;;;;5030799;28;20033;-48
2022/07/23 07:58:39;;;;;;;4.15;1.90;;;33.10;50.90;;;;;;5030405;28;20202;-51
2022/07/23 08:01:04;;;;;;;5.53;2.13;;;33.50;50.20;;;;;;5030988;28;20119;-47
2022/07/23 08:03:30;;;;;;;3.85;1.90;;;33.80;48.80;;;;;;5031281;28;20021;-57
2022/07/23 08:05:56;;;;;;;4.05;1.90;;;33.60;49.50;;;;;;5042149;28;20037;-47
2022/07/23 08:08:21;;;;;;;5.70;2.13;;;33.50;49.40;;;;;;5051302;28;20020;-44
2022/07/23 08:10:47;;;;;;;5.03;1.70;;;33.40;48.10;;;;;;5051144;28;20468;-44
2022/07/23 08:13:14;;;;;;;5.25;1.83;;;33.10;48.90;;;;;;5051150;28;20063;-46
2022/07/23 08:15:41;;;;;;;5.68;1.90;;;33.20;46.90;;;;;;5051082;28;20032;-44
2022/07/23 08:18:06;;;;;;;6.78;2.70;;;33.40;47.10;;;;;;5051116;28;20480;-45
2022/07/23 08:20:32;;;;;;;6.15;2.20;;;33.30;46.90;;;;;;5050878;28;20462;-46
2022/07/23 08:23:06;;;;;;;4.55;2.10;;;33.00;46.00;;;;;;5050981;28;20037;-46
2022/07/23 08:25:40;;;;;;;4.05;2.20;;;32.00;49.30;;;;;;5039514;28;20044;-48
2022/07/23 08:28:09;;;;;;;4.32;2.13;;;32.00;49.20;;;;;;5051011;28;20079;-46
2022/07/23 08:30:36;;;;;;;4.65;2.15;;;31.90;49.50;;;;;;5050628;28;20031;-48
2022/07/23 08:33:07;;;;;;;6.72;2.20;;;32.10;50.50;;;;;;5050664;28;20028;-44
2022/07/23 08:35:39;;;;;;;5.32;2.10;;;31.90;50.40;;;;;;5050721;28;20123;-51
2022/07/23 08:38:08;;;;;;;4.85;2.20;;;31.90;51.40;;;;;;5046687;28;20021;-47
2022/07/23 08:40:36;;;;;;;6.32;2.42;;;31.80;51.10;;;;;;5032520;28;20014;-44
2022/07/23 08:43:09;;;;;;;7.00;2.80;;;31.80;50.80;;;;;;5038935;28;20028;-44
2022/07/23 08:45:41;;;;;;;4.72;2.45;;;32.20;50.40;;;;;;5045771;28;20022;-43
2022/07/23 08:48:12;;;;;;;7.82;2.40;;;32.50;49.40;;;;;;5039004;28;20074;-43
2022/07/23 08:50:42;;;;;;;4.30;2.05;;;32.70;51.40;;;;;;5050668;28;20021;-43
2022/07/23 08:53:09;;;;;;;7.72;2.70;;;33.50;50.20;;;;;;5053865;28;20020;-44
2022/07/23 08:55:35;;;;;;;8.02;2.45;;;33.60;47.40;;;;;;5054769;28;20078;-43
2022/07/23 08:58:01;;;;;;;5.20;2.17;;;33.60;47.90;;;;;;5054721;28;20024;-44
2022/07/23 09:00:27;;;;;;;5.45;2.42;;;32.80;47.60;;;;;;5054863;28;20017;-43
2022/07/23 09:02:53;;;;;;;5.45;2.45;;;32.30;48.70;;;;;;5054789;28;20056;-50
2022/07/23 09:05:19;;;;;;;6.03;2.72;;;31.00;51.10;;;;;;5040525;28;20375;-43
2022/07/23 09:08:09;;;;;;;7.30;2.47;;;30.20;52.70;;;;;;5053279;28;20479;-42
2022/07/23 09:11:01;;;;;;;7.95;2.50;;;30.10;56.20;;;;;;5028836;28;20491;-42
2022/07/23 09:13:52;;;;;;;5.57;2.53;;;30.80;55.00;;;;;;5054473;28;20723;-43
2022/07/23 09:16:23;;;;;;;6.40;2.58;;;30.80;51.80;;;;;;5043748;28;20033;-52
2022/07/23 09:18:56;;;;;;;5.05;2.60;;;30.30;54.70;;;;;;5043114;28;20037;-51
2022/07/23 09:21:29;;;;;;;7.78;3.10;;;30.10;52.20;;;;;;5047157;28;20036;-49
2022/07/23 09:24:01;;;;;;;9.35;2.67;;;30.00;53.90;;;;;;5054302;28;20017;-46
2022/07/23 09:26:31;;;;;;;4.70;2.40;;;30.50;54.80;;;;;;5054241;28;20025;-51
2022/07/23 09:29:07;;;;;;;6.15;2.53;;;30.40;54.50;;;;;;5054066;28;20516;-49
2022/07/23 09:31:53;;;;;;;6.95;2.35;;;29.80;52.80;;;;;;5054562;28;20033;-44
2022/07/23 09:34:30;;;;;;;6.43;2.60;;;29.20;55.30;;;;;;5027573;28;20021;-51
2022/07/23 09:37:13;;;;;;;5.00;2.38;;;29.60;56.40;;;;;;5054108;28;20081;-48
2022/07/23 09:39:40;;;;;;;7.07;2.50;;;30.20;54.10;;;;;;5053995;28;20035;-42
2022/07/23 09:42:25;;;;;;;4.80;2.50;;;30.70;54.50;;;;;;5054054;28;20472;-52
2022/07/23 09:44:53;;;;;;;4.13;2.33;;;30.60;52.20;;;;;;5054109;28;20079;-44
2022/07/23 09:47:20;;;;;;;4.85;2.30;;;30.60;54.00;;;;;;5048516;28;20055;-44
2022/07/23 09:50:06;;;;;;;5.88;2.20;;;31.20;51.70;;;;;;5040328;28;20032;-44
2022/07/23 09:52:34;;;;;;;6.63;2.47;;;31.50;51.80;;;;;;5036520;28;20036;-45
2022/07/23 09:55:03;;;;;;;5.10;2.40;;;31.80;52.70;;;;;;5053929;28;20060;-49
2022/07/23 09:57:30;;;;;;;5.75;2.65;;;32.40;51.00;;;;;;5053702;28;20155;-53
2022/07/23 10:00:00;;;;;;;6.82;2.78;;;32.40;50.80;;;;;;5053699;28;20055;-48
2022/07/23 10:02:28;;;;;;;5.75;2.50;;;31.80;48.10;;;;;;5053572;28;20025;-46
2022/07/23 10:04:54;;;;;;;4.18;2.72;;;31.00;48.50;;;;;;5038289;28;20033;-46
2022/07/23 10:07:23;;;;;;;6.10;2.78;;;29.90;51.10;;;;;;5053562;28;20025;-48
2022/07/23 10:09:52;;;;;;;7.55;2.60;;;29.50;55.20;;;;;;5051386;28;20497;-50
2022/07/23 10:12:22;;;;;;;7.57;2.63;;;30.00;56.80;;;;;;5053380;28;20082;-44
2022/07/23 10:14:49;;;;;;;5.18;2.53;;;30.90;53.50;;;;;;5050750;28;20122;-49
2022/07/23 10:17:15;;;;;;;6.80;2.47;;;31.40;51.50;;;;;;5020500;28;20507;-46
2022/07/23 10:19:42;;;;;;;5.53;2.42;;;31.70;51.20;;;;;;5045423;28;20036;-51
2022/07/23 10:22:14;;;;;;;4.07;1.83;;;32.20;53.00;;;;;;5053103;28;20507;-44
2022/07/23 10:25:13;;;;;;;5.25;1.98;;;32.40;48.80;;;;;;5053116;28;20040;-46
2022/07/23 10:27:54;;;;;;;5.10;2.10;;;32.10;47.10;;;;;;5028547;28;20049;-46
2022/07/23 10:30:28;;;;;;;5.45;2.20;;;31.90;46.90;;;;;;5052952;28;20567;-46
2022/07/23 10:33:24;;;;;;;4.82;1.98;;;32.10;46.10;;;;;;5053164;28;20025;-54
2022/07/23 10:36:20;;;;;;;6.45;2.30;;;31.30;48.20;;;;;;5052426;28;20045;-46
2022/07/23 10:39:05;;;;;;;4.35;2.10;;;31.40;50.20;;;;;;5052239;28;20597;-46
2022/07/23 10:41:39;;;;;;;3.42;1.88;;;31.60;47.40;;;;;;5042933;28;20388;-47
2022/07/23 10:44:09;;;;;;;3.83;1.92;;;31.20;49.90;;;;;;5049574;28;20013;-50
2022/07/23 10:46:51;;;;;;;4.40;1.67;;;31.70;46.90;;;;;;5038308;28;20467;-49
2022/07/23 10:49:29;;;;;;;5.53;1.70;;;31.30;49.50;;;;;;5039211;28;20032;-47
2022/07/23 10:52:13;;;;;;;3.53;1.80;;;30.90;49.80;;;;;;5052797;28;20036;-49
2022/07/23 10:54:39;;;;;;;6.35;1.80;;;30.90;47.20;;;;;;5052335;28;20048;-46
2022/07/23 10:57:09;;;;;;;6.05;2.13;;;30.40;46.90;;;;;;5052745;28;20071;-57
2022/07/23 11:00:09;;;;;;;3.25;1.70;;;29.80;48.80;;;;;;5046713;28;20078;-46
2022/07/23 11:02:36;;;;;;;4.28;1.63;;;29.90;53.60;;;;;;5031279;28;20091;-51
2022/07/23 11:05:07;;;;;;;6.57;2.00;;;30.30;50.40;;;;;;5035101;28;20056;-49
2022/07/23 11:07:33;;;;;;;3.33;1.70;;;30.30;46.60;;;;;;5039595;28;20068;-49
2022/07/23 11:09:59;;;;;;;3.97;1.80;;;30.10;50.20;;;;;;5040892;28;20116;-47
2022/07/23 11:12:27;;;;;;;5.20;1.80;;;30.40;49.40;;;;;;5041009;28;20419;-51
2022/07/23 11:15:05;;;;;;;3.50;1.70;;;30.60;48.20;;;;;;5041949;28;20047;-44
2022/07/23 11:17:57;;;;;;;5.45;1.75;;;30.50;48.70;;;;;;5039418;28;20492;-46
2022/07/23 11:20:24;;;;;;;3.97;1.80;;;30.50;48.10;;;;;;5037334;28;20053;-51
2022/07/23 11:22:55;;;;;;;5.50;1.85;;;30.60;47.60;;;;;;5035484;28;20040;-46
2022/07/23 11:25:21;;;;;;;4.05;1.60;;;30.40;48.80;;;;;;5034143;28;20095;-45
2022/07/23 11:27:50;;;;;;;3.90;2.05;;;30.50;49.10;;;;;;5036529;28;20480;-43
2022/07/23 11:30:28;;;;;;;3.92;1.75;;;30.30;49.10;;;;;;5031256;28;20059;-45
2022/07/23 11:33:13;;;;;;;3.08;1.48;;;30.50;47.00;;;;;;5034925;28;20028;-47
2022/07/23 11:35:45;;;;;;;4.93;1.65;;;29.90;46.80;;;;;;5031782;28;20472;-44
2022/07/23 11:38:16;;;;;;;4.28;1.65;;;29.60;45.80;;;;;;5034519;28;20491;-44
2022/07/23 11:40:45;;;;;;;4.15;1.40;;;29.20;47.30;;;;;;5040989;28;20033;-46
2022/07/23 11:43:11;;;;;;;5.88;1.50;;;29.10;50.10;;;;;;5045423;28;20467;-43
2022/07/23 11:45:40;;;;;;;6.68;1.83;;;28.70;47.50;;;;;;5032324;28;20022;-45
2022/07/23 11:48:08;;;;;;;5.55;1.60;;;28.50;49.30;;;;;;5031423;28;20029;-52
2022/07/23 11:50:35;;;;;;;5.00;1.70;;;28.10;48.70;;;;;;5031472;28;20025;-46
2022/07/23 11:53:02;;;;;;;4.30;1.58;;;27.70;49.70;;;;;;5034793;28;20045;-48
2022/07/23 11:55:28;;;;;;;3.97;1.67;;;28.00;51.30;;;;;;5032350;28;20025;-43
2022/07/23 11:57:54;;;;;;;4.50;1.58;;;28.30;49.20;;;;;;5032527;28;20490;-45
2022/07/23 12:00:23;;;;;;;2.70;1.25;;;28.30;49.00;;;;;;5031388;28;20076;-46
2022/07/23 12:02:52;;;;;;;3.45;1.67;;;28.30;50.30;;;;;;5026909;28;20052;-48
2022/07/23 12:05:25;;;;;;;;;;;28.70;51.00;;;;;;5036888;28;20029;-44
2022/07/23 12:07:53;;;;;;;3.28;1.45;;;28.90;51.20;;;;;;5042514;28;20382;-45
2022/07/23 12:10:21;;;;;;;3.28;1.52;;;29.10;48.00;;;;;;5027315;28;20109;-45
2022/07/23 12:12:59;;;;;;;3.40;1.58;;;29.10;51.30;;;;;;5030013;28;20123;-47
2022/07/23 12:15:31;;;;;;;3.67;1.40;;;29.30;50.70;;;;;;5035416;28;20017;-43
2022/07/23 12:17:58;;;;;;;5.10;1.77;;;29.70;46.70;;;;;;5039592;28;20542;-43
2022/07/23 12:20:27;;;;;;;5.03;1.85;;;29.00;47.00;;;;;;5035912;28;20021;-46
2022/07/23 12:22:57;;;;;;;2.88;1.30;;;28.80;49.60;;;;;;5020829;28;20067;-44
2022/07/23 12:25:32;;;;;;;4.90;1.50;;;28.90;48.80;;;;;;5034610;28;20036;-46
2022/07/23 12:28:07;;;;;;;2.85;1.40;;;28.50;49.00;;;;;;5048680;28;20029;-48
2022/07/23 12:30:46;;;;;;;4.53;1.50;;;28.10;49.20;;;;;;5049225;28;20100;-45
2022/07/23 12:33:30;;;;;;;4.20;1.60;;;27.80;48.50;;;;;;5050244;28;20111;-46
2022/07/23 12:35:58;;;;;;;5.18;1.45;;;27.50;51.40;;;;;;5032215;28;20037;-46
2022/07/23 12:38:27;;;;;;;5.32;1.60;;;27.60;49.60;;;;;;5030765;28;20125;-47
2022/07/23 12:40:59;;;;;;;3.92;1.33;;;27.40;51.90;;;;;;5030561;28;20112;-49
2022/07/23 12:43:39;;;;;;;6.18;1.60;;;27.80;48.60;;;;;;5030931;28;20032;-47
2022/07/23 12:46:08;;;;;;;2.63;1.50;;;27.60;49.20;;;;;;5033308;28;20021;-50
2022/07/23 12:48:37;;;;;;;4.13;1.48;;;27.70;50.60;;;;;;5030474;28;20104;-53
2022/07/23 12:51:08;;;;;;;4.80;1.67;;;27.40;49.80;;;;;;5030982;28;20585;-51
2022/07/23 12:53:39;;;;;;;3.25;1.60;;;27.60;51.00;;;;;;5036758;28;20053;-46